createdAt,value
2019-03-12T00:02:08.724Z,14.43
2019-03-12T00:04:38.635Z,14.17
2019-03-12T00:07:08.542Z,13.47
2019-03-12T00:09:38.450Z,14.80
2019-03-12T00:12:08.324Z,15.93
2019-03-12T00:14:38.291Z,16.03
2019-03-12T00:17:08.181Z,15.23
2019-03-12T00:19:38.088Z,14.80
2019-03-12T00:22:07.984Z,15.77
2019-03-12T00:24:38.167Z,12.57
2019-03-12T00:27:08.507Z,14.53
2019-03-12T00:29:38.602Z,15.57
2019-03-12T00:32:08.493Z,15.73
2019-03-12T00:34:38.673Z,13.93
2019-03-12T00:37:08.655Z,15.10
2019-03-12T00:39:38.587Z,17.47
2019-03-12T00:42:08.564Z,17.57
2019-03-12T00:44:38.445Z,13.93
2019-03-12T00:47:08.365Z,15.50
2019-03-12T00:49:38.260Z,13.90
2019-03-12T00:52:08.208Z,15.10
2019-03-12T00:54:38.408Z,14.07
2019-03-12T00:57:08.356Z,15.57
2019-03-12T00:59:38.327Z,16.37
2019-03-12T01:02:08.254Z,19.00
2019-03-12T01:04:38.314Z,15.43
2019-03-12T01:07:09.005Z,15.00
2019-03-12T01:09:39.123Z,19.63
2019-03-12T01:12:09.168Z,16.60
2019-03-12T01:14:39.059Z,13.97
2019-03-12T01:17:09.384Z,18.17
2019-03-12T01:19:39.286Z,17.00
2019-03-12T01:22:09.643Z,16.77
2019-03-12T01:24:39.772Z,18.63
2019-03-12T01:27:09.655Z,18.83
2019-03-12T01:29:39.538Z,17.00
2019-03-12T01:32:09.495Z,19.60
2019-03-12T01:34:39.369Z,17.40
2019-03-12T01:37:09.627Z,21.43
2019-03-12T01:39:39.505Z,18.33
2019-03-12T01:42:09.631Z,19.27
2019-03-12T01:44:39.523Z,25.50
2019-03-12T01:47:09.890Z,20.00
2019-03-12T01:49:39.999Z,22.93
2019-03-12T01:52:10.055Z,19.27
2019-03-12T01:54:39.927Z,22.90
2019-03-12T01:57:09.820Z,21.87
2019-03-12T01:59:40.026Z,26.37
2019-03-12T02:02:09.967Z,23.03
2019-03-12T02:04:40.096Z,24.80
2019-03-12T02:07:10.094Z,24.93
2019-03-12T02:09:39.973Z,23.57
2019-03-12T02:12:09.860Z,28.90
2019-03-12T02:14:39.743Z,26.23
2019-03-12T02:17:09.938Z,20.83
2019-03-12T02:19:39.823Z,23.87
2019-03-12T02:22:09.705Z,21.80
2019-03-12T02:24:52.178Z,23.03
2019-03-12T02:27:11.821Z,24.20
2019-03-12T02:29:41.756Z,21.30
2019-03-12T02:32:12.028Z,21.50
2019-03-12T02:34:41.922Z,24.33
2019-03-12T02:37:12.033Z,23.07
2019-03-12T02:39:42.241Z,25.93
2019-03-12T02:42:12.906Z,23.67
2019-03-12T02:44:43.042Z,26.57
2019-03-12T02:47:13.004Z,28.37
2019-03-12T02:49:43.017Z,25.30
2019-03-12T02:52:12.975Z,23.50
2019-03-12T02:54:42.887Z,27.90
2019-03-12T02:57:12.828Z,25.97
2019-03-12T02:59:42.814Z,26.77
2019-03-12T03:02:12.743Z,23.37
2019-03-12T03:04:42.615Z,28.63
2019-03-12T03:07:20.483Z,26.37
2019-03-12T03:09:50.433Z,22.60
2019-03-12T03:12:20.667Z,27.07
2019-03-12T03:14:50.663Z,26.30
2019-03-12T03:17:20.590Z,23.40
2019-03-12T03:19:50.553Z,26.63
2019-03-12T03:22:20.522Z,28.80
2019-03-12T03:24:50.789Z,27.27
2019-03-12T03:27:21.126Z,23.80
2019-03-12T03:29:51.321Z,24.13
2019-03-12T03:32:21.471Z,22.77
2019-03-12T03:34:51.412Z,27.40
2019-03-12T03:37:21.411Z,23.80
2019-03-12T03:39:51.337Z,26.30
2019-03-12T03:42:21.545Z,23.10
2019-03-12T03:44:51.809Z,25.13
2019-03-12T03:47:22.294Z,25.80
2019-03-12T03:49:52.279Z,23.17
2019-03-12T03:52:22.452Z,24.03
2019-03-12T03:54:52.697Z,23.17
2019-03-12T03:57:22.564Z,24.07
2019-03-12T03:59:52.511Z,21.80
2019-03-12T04:02:22.398Z,24.40
2019-03-12T04:04:52.356Z,27.00
2019-03-12T04:07:22.268Z,24.07
2019-03-12T04:09:52.273Z,28.83
2019-03-12T04:12:22.189Z,25.90
2019-03-12T04:14:52.123Z,23.10
2019-03-12T04:17:22.562Z,26.37
2019-03-12T04:19:52.620Z,24.20
2019-03-12T04:22:22.587Z,20.07
2019-03-12T04:24:52.490Z,26.23
2019-03-12T04:27:22.413Z,21.70
2019-03-12T04:29:52.539Z,22.80
2019-03-12T04:32:22.692Z,20.43
2019-03-12T04:34:52.741Z,21.47
2019-03-12T04:37:22.971Z,17.23
2019-03-12T04:39:52.839Z,19.67
2019-03-12T04:42:23.055Z,19.63
2019-03-12T04:44:52.996Z,19.30
2019-03-12T04:47:22.910Z,19.27
2019-03-12T04:49:52.829Z,18.73
2019-03-12T04:52:22.723Z,19.33
2019-03-12T04:54:52.694Z,22.23
2019-03-12T04:57:23.151Z,18.37
2019-03-12T04:59:53.105Z,23.60
2019-03-12T05:02:23.295Z,16.97
2019-03-12T05:04:53.330Z,17.57
2019-03-12T05:07:23.252Z,18.43
2019-03-12T05:09:53.392Z,18.47
2019-03-12T05:12:23.276Z,17.53
2019-03-12T05:14:53.427Z,19.60
2019-03-12T05:17:26.407Z,18.87
2019-03-12T05:19:56.837Z,21.27
2019-03-12T05:22:27.054Z,17.63
2019-03-12T05:24:56.979Z,16.10
2019-03-12T05:27:27.268Z,16.17
2019-03-12T05:29:57.317Z,14.60
2019-03-12T05:32:27.506Z,19.20
2019-03-12T05:34:57.408Z,16.97
2019-03-12T05:37:27.351Z,18.23
2019-03-12T05:39:57.260Z,12.47
2019-03-12T05:42:27.159Z,14.27
2019-03-12T05:44:57.113Z,12.97
2019-03-12T05:47:27.026Z,13.50
2019-03-12T05:49:56.961Z,15.30
2019-03-12T05:52:26.943Z,14.37
2019-03-12T05:54:57.077Z,11.27
2019-03-12T05:57:27.064Z,11.17
2019-03-12T05:59:57.005Z,14.73
2019-03-12T06:02:27.289Z,14.43
2019-03-12T06:04:57.200Z,11.77
2019-03-12T06:07:27.108Z,11.00
2019-03-12T06:09:57.568Z,14.67
2019-03-12T06:12:27.489Z,13.97
2019-03-12T06:14:57.410Z,13.73
2019-03-12T06:17:27.436Z,11.47
2019-03-12T06:19:57.452Z,12.53
2019-03-12T06:22:27.372Z,12.43
2019-03-12T06:24:57.566Z,12.23
2019-03-12T06:27:27.819Z,12.27
2019-03-12T06:29:58.020Z,12.87
2019-03-12T06:32:34.715Z,11.17
2019-03-12T06:35:10.349Z,17.93
2019-03-12T06:37:48.770Z,11.63
2019-03-12T06:40:33.186Z,13.87
2019-03-12T06:43:22.058Z,14.40
2019-03-12T06:46:08.823Z,14.67
2019-03-12T06:48:43.401Z,13.80
2019-03-12T06:51:35.399Z,11.53
2019-03-12T06:54:23.032Z,13.73
2019-03-12T06:57:11.950Z,13.13
2019-03-12T06:59:59.725Z,13.63
2019-03-12T07:02:57.955Z,12.10
2019-03-12T07:05:46.945Z,14.03
2019-03-12T07:08:38.827Z,22.70
2019-03-12T07:11:35.468Z,15.10
2019-03-12T07:14:10.656Z,16.60
2019-03-12T07:16:49.777Z,14.97
2019-03-12T07:19:31.136Z,16.67
2019-03-12T07:22:15.519Z,16.93
2019-03-12T07:24:56.250Z,16.33
2019-03-12T07:27:44.757Z,14.77
2019-03-12T07:30:33.956Z,20.70
2019-03-12T07:33:10.559Z,20.53
2019-03-12T07:35:45.473Z,17.07
2019-03-12T07:38:31.040Z,17.73
2019-03-12T07:41:31.598Z,15.90
2019-03-12T07:44:12.230Z,16.93
2019-03-12T07:47:03.937Z,14.87
2019-03-12T07:49:42.614Z,16.53
2019-03-12T07:52:29.695Z,18.27
2019-03-12T07:55:29.858Z,13.67
2019-03-12T07:58:14.464Z,19.57
2019-03-12T08:00:50.430Z,15.07
2019-03-12T08:03:42.373Z,16.27
2019-03-12T08:06:34.440Z,19.93
2019-03-12T08:09:29.123Z,16.83
2019-03-12T08:12:10.736Z,18.63
2019-03-12T08:14:50.917Z,21.90
2019-03-12T08:17:38.750Z,20.60
2019-03-12T08:20:21.866Z,20.67
2019-03-12T08:23:02.175Z,21.30
2019-03-12T08:25:57.457Z,17.77
2019-03-12T08:28:36.801Z,19.13
2019-03-12T08:31:14.846Z,17.20
2019-03-12T08:34:16.517Z,16.10
2019-03-12T08:37:06.687Z,19.80
2019-03-12T08:39:59.147Z,19.93
2019-03-12T08:42:54.857Z,19.70
2019-03-12T08:45:40.476Z,18.00
2019-03-12T08:48:20.456Z,14.40
2019-03-12T08:50:57.054Z,13.90
2019-03-12T08:53:38.358Z,17.50
2019-03-12T08:56:26.598Z,16.53
2019-03-12T08:59:19.074Z,14.47
2019-03-12T09:02:24.001Z,16.03
2019-03-12T09:05:16.028Z,15.20
2019-03-12T09:08:02.073Z,16.97
2019-03-12T09:10:38.202Z,20.23
2019-03-12T09:13:18.183Z,13.10
2019-03-12T09:16:01.210Z,14.63
2019-03-12T09:18:39.593Z,12.97
2019-03-12T09:21:24.315Z,11.77
2019-03-12T09:24:18.552Z,15.40
2019-03-12T09:27:07.639Z,10.67
2019-03-12T09:30:00.065Z,10.53
2019-03-12T09:32:40.930Z,9.50
2019-03-12T09:35:35.894Z,10.43
2019-03-12T09:38:13.934Z,14.47
2019-03-12T09:41:01.428Z,12.17
2019-03-12T09:43:53.324Z,10.37
2019-03-12T09:46:43.443Z,7.97
2019-03-12T09:49:41.334Z,9.53
2019-03-12T09:52:29.050Z,11.80
2019-03-12T09:55:16.576Z,10.67
2019-03-12T09:57:57.492Z,11.23
2019-03-12T10:00:45.536Z,9.27
2019-03-12T10:03:36.737Z,12.20
2019-03-12T10:06:40.298Z,10.87
2019-03-12T10:09:37.188Z,7.97
2019-03-12T10:12:24.523Z,9.83
2019-03-12T10:15:12.276Z,12.27
2019-03-12T10:18:10.352Z,9.67
2019-03-12T10:20:59.477Z,9.77
2019-03-12T10:23:51.463Z,6.27
2019-03-12T10:26:37.624Z,8.27
2019-03-12T10:29:26.025Z,8.37
2019-03-12T10:32:09.109Z,8.10
2019-03-12T10:34:51.340Z,11.97
2019-03-12T10:37:27.536Z,7.27
2019-03-12T10:40:13.600Z,5.77
2019-03-12T10:42:58.128Z,5.97
2019-03-12T10:45:38.764Z,7.33
2019-03-12T10:48:08.914Z,9.87
2019-03-12T10:50:38.838Z,10.00
2019-03-12T10:53:08.802Z,6.80
2019-03-12T10:55:38.714Z,7.97
2019-03-12T10:58:08.593Z,6.83
2019-03-12T11:00:39.285Z,4.30
2019-03-12T11:03:09.451Z,6.50
2019-03-12T11:05:46.047Z,6.73
2019-03-12T11:08:11.169Z,11.17
2019-03-12T11:10:41.426Z,9.20
2019-03-12T11:13:14.509Z,8.57
2019-03-12T11:15:43.328Z,7.30
2019-03-12T11:18:13.262Z,6.97
2019-03-12T11:20:43.186Z,7.63
2019-03-12T11:23:13.071Z,12.87
2019-03-12T11:25:43.186Z,9.10
2019-03-12T11:28:13.510Z,6.83
2019-03-12T11:30:43.488Z,7.20
2019-03-12T11:33:13.853Z,3.97
2019-03-12T11:35:44.277Z,5.73
2019-03-12T11:38:14.218Z,5.73
2019-03-12T11:40:44.122Z,4.83
2019-03-12T11:43:14.275Z,9.07
2019-03-12T11:45:44.448Z,4.37
2019-03-12T11:48:14.613Z,6.50
2019-03-12T11:50:44.940Z,4.67
2019-03-12T11:53:14.919Z,4.77
2019-03-12T11:55:44.828Z,5.73
2019-03-12T11:58:15.017Z,3.37
2019-03-12T12:00:49.967Z,5.17
2019-03-12T12:03:19.871Z,3.47
2019-03-12T12:05:49.765Z,3.63
2019-03-12T12:08:19.711Z,3.40
2019-03-12T12:10:49.828Z,3.63
2019-03-12T12:13:19.781Z,9.80
2019-03-12T12:15:50.113Z,5.67
2019-03-12T12:18:20.007Z,6.63
2019-03-12T12:20:50.143Z,6.30
2019-03-12T12:23:20.079Z,2.73
2019-03-12T12:25:50.063Z,4.87
2019-03-12T12:28:19.983Z,5.73
2019-03-12T12:30:50.270Z,4.73
2019-03-12T12:33:20.175Z,5.93
2019-03-12T12:35:50.039Z,6.23
2019-03-12T12:38:19.954Z,4.33
2019-03-12T12:40:50.342Z,3.40
2019-03-12T12:43:20.327Z,3.43
2019-03-12T12:45:50.334Z,5.67
2019-03-12T12:48:20.630Z,4.43
2019-03-12T12:51:02.423Z,4.33
2019-03-12T12:53:22.477Z,3.90
2019-03-12T12:55:52.696Z,8.60
2019-03-12T12:58:22.588Z,7.87
2019-03-12T13:00:53.882Z,5.33
2019-03-12T13:03:23.941Z,6.33
2019-03-12T13:05:55.598Z,7.37
2019-03-12T13:08:25.945Z,5.10
2019-03-12T13:10:56.085Z,4.20
2019-03-12T13:13:25.985Z,5.27
2019-03-12T13:15:55.862Z,7.00
2019-03-12T13:18:25.782Z,6.30
2019-03-12T13:20:55.918Z,5.20
2019-03-12T13:23:25.887Z,6.80
2019-03-12T13:25:56.101Z,3.10
2019-03-12T13:28:28.065Z,2.93
2019-03-12T13:30:58.026Z,5.70
2019-03-12T13:33:28.615Z,4.00
2019-03-12T13:35:58.742Z,4.33
2019-03-12T13:38:28.735Z,6.07
2019-03-12T13:41:02.898Z,5.13
2019-03-12T13:43:30.437Z,4.57
2019-03-12T13:46:00.823Z,4.03
2019-03-12T13:48:30.883Z,4.50
2019-03-12T13:51:00.895Z,5.90
2019-03-12T13:53:31.217Z,4.27
2019-03-12T13:56:01.438Z,7.67
2019-03-12T13:58:31.713Z,4.50
2019-03-12T14:01:01.625Z,4.83
2019-03-12T14:03:31.582Z,4.13
2019-03-12T14:06:08.624Z,5.73
2019-03-12T14:08:42.108Z,5.70
2019-03-12T14:11:12.112Z,4.13
2019-03-12T14:13:42.196Z,6.10
2019-03-12T14:16:12.529Z,5.60
2019-03-12T14:18:42.465Z,7.17
2019-03-12T14:21:15.245Z,7.23
2019-03-12T14:23:54.936Z,5.63
2019-03-12T14:26:25.046Z,7.73
2019-03-12T14:28:55.088Z,4.20
2019-03-12T14:31:25.402Z,6.80
2019-03-12T14:33:56.487Z,6.07
2019-03-12T14:36:27.702Z,7.60
2019-03-12T14:38:57.829Z,8.03
2019-03-12T14:41:28.178Z,10.77
2019-03-12T14:43:58.854Z,6.93
2019-03-12T14:46:29.267Z,7.40
2019-03-12T14:49:02.350Z,8.60
2019-03-12T14:52:19.531Z,7.50
2019-03-12T14:54:49.629Z,7.20
2019-03-12T14:57:19.546Z,9.43
2019-03-12T14:59:49.633Z,7.97
2019-03-12T15:02:19.763Z,8.47
2019-03-12T15:04:50.302Z,6.50
2019-03-12T15:07:21.729Z,11.93
2019-03-12T15:09:52.783Z,11.60
2019-03-12T15:12:26.842Z,11.20
2019-03-12T15:14:57.275Z,10.60
2019-03-12T15:17:28.494Z,10.00
2019-03-12T15:19:58.557Z,7.73
2019-03-12T15:22:28.742Z,10.23
2019-03-12T15:24:58.603Z,9.37
2019-03-12T15:27:29.059Z,10.30
2019-03-12T15:29:59.071Z,9.70
2019-03-12T15:32:29.014Z,8.47
2019-03-12T15:34:58.932Z,7.83
2019-03-12T15:37:28.863Z,8.53
2019-03-12T15:39:58.801Z,13.30
2019-03-12T15:42:28.766Z,9.97
2019-03-12T15:44:58.950Z,10.63
2019-03-12T15:47:29.253Z,8.97
2019-03-12T15:49:59.785Z,9.97
2019-03-12T15:52:29.708Z,12.73
2019-03-12T15:54:59.762Z,11.63
2019-03-12T15:57:29.664Z,8.67
2019-03-12T15:59:59.723Z,8.73
2019-03-12T16:02:29.642Z,15.23
2019-03-12T16:04:59.965Z,13.03
2019-03-12T16:07:36.054Z,9.37
2019-03-12T16:10:06.645Z,7.57
2019-03-12T16:12:36.948Z,7.80
2019-03-12T16:15:08.229Z,9.83
2019-03-12T16:17:38.491Z,8.30
2019-03-12T16:20:11.034Z,7.17
2019-03-12T16:22:41.168Z,9.30
2019-03-12T16:25:11.697Z,7.53
2019-03-12T16:27:42.195Z,8.10
2019-03-12T16:30:12.438Z,9.93
2019-03-12T16:32:42.345Z,7.90
2019-03-12T16:35:12.346Z,12.77
2019-03-12T16:37:42.616Z,8.17
2019-03-12T16:40:12.942Z,7.77
2019-03-12T16:42:42.879Z,7.63
2019-03-12T16:45:13.252Z,8.97
2019-03-12T16:47:43.590Z,7.83
2019-03-12T16:50:13.869Z,8.23
2019-03-12T16:52:43.865Z,7.60
2019-03-12T16:55:14.414Z,10.23
2019-03-12T16:57:44.412Z,6.43
2019-03-12T17:00:14.802Z,7.90
2019-03-12T17:02:44.747Z,7.50
2019-03-12T17:05:15.413Z,7.10
2019-03-12T17:07:47.270Z,8.85
2019-03-12T17:10:17.308Z,6.07
2019-03-12T17:12:47.222Z,8.10
2019-03-12T17:15:17.507Z,7.47
2019-03-12T17:17:47.623Z,7.00
2019-03-12T17:20:18.141Z,9.47
2019-03-12T17:22:48.323Z,8.73
2019-03-12T17:25:18.437Z,17.60
2019-03-12T17:27:51.579Z,9.50
2019-03-12T17:30:21.322Z,8.20
2019-03-12T17:32:51.636Z,7.50
2019-03-12T17:35:24.397Z,6.33
2019-03-12T17:37:54.703Z,6.20
2019-03-12T17:40:24.646Z,6.83
2019-03-12T17:42:54.765Z,5.33
2019-03-12T17:45:25.084Z,6.37
2019-03-12T17:47:55.155Z,11.30
2019-03-12T17:50:25.572Z,8.30
2019-03-12T17:52:55.589Z,11.43
2019-03-12T17:55:25.475Z,6.97
2019-03-12T17:57:55.598Z,10.00
2019-03-12T18:00:28.555Z,8.07
2019-03-12T18:02:59.104Z,5.20
2019-03-12T18:05:29.461Z,5.83
2019-03-12T18:07:59.733Z,9.40
2019-03-12T18:10:29.931Z,6.83
2019-03-12T18:13:00.030Z,8.90
2019-03-12T18:15:30.141Z,9.17
2019-03-12T18:18:00.547Z,6.63
2019-03-12T18:20:30.857Z,8.63
2019-03-12T18:23:01.094Z,7.87
2019-03-12T18:25:31.241Z,7.43
2019-03-12T18:28:01.206Z,6.43
2019-03-12T18:30:31.501Z,7.40
2019-03-12T18:33:01.545Z,6.00
2019-03-12T18:35:31.554Z,12.20
2019-03-12T18:38:01.646Z,8.87
2019-03-12T18:40:32.203Z,7.23
2019-03-12T18:43:02.181Z,10.60
2019-03-12T18:45:32.204Z,5.73
2019-03-12T18:48:02.293Z,9.37
2019-03-12T18:50:32.465Z,9.50
2019-03-12T18:53:02.980Z,9.80
2019-03-12T18:56:03.493Z,9.73
2019-03-12T18:58:33.815Z,7.57
2019-03-12T19:01:08.452Z,7.07
2019-03-12T19:03:38.383Z,10.23
2019-03-12T19:06:10.222Z,8.83
2019-03-12T19:08:47.517Z,4.87
2019-03-12T19:11:12.419Z,9.27
2019-03-12T19:13:43.503Z,6.57
2019-03-12T19:16:13.630Z,8.47
2019-03-12T19:18:44.587Z,6.83
2019-03-12T19:21:14.885Z,5.80
2019-03-12T19:23:45.182Z,6.47
2019-03-12T19:26:15.458Z,6.43
2019-03-12T19:28:45.728Z,10.23
2019-03-12T19:31:28.386Z,7.10
2019-03-12T19:34:00.861Z,7.57
2019-03-12T19:36:31.449Z,8.17
2019-03-12T19:39:02.058Z,8.37
2019-03-12T19:41:32.422Z,6.60
2019-03-12T19:44:02.390Z,11.60
2019-03-12T19:46:32.802Z,9.70
2019-03-12T19:49:02.713Z,7.93
2019-03-12T19:51:32.719Z,7.40
2019-03-12T19:54:02.985Z,8.27
2019-03-12T19:56:32.918Z,7.43
2019-03-12T19:59:02.867Z,9.17
2019-03-12T20:01:36.122Z,7.33
2019-03-12T20:04:06.305Z,8.10
2019-03-12T20:06:36.472Z,7.20
2019-03-12T20:09:09.617Z,10.30
2019-03-12T20:12:31.642Z,5.57
2019-03-12T20:15:55.636Z,8.03
2019-03-12T20:19:05.375Z,9.33
2019-03-12T20:22:36.053Z,9.17
2019-03-12T20:26:13.437Z,6.20
2019-03-12T20:29:46.355Z,7.60
2019-03-12T20:33:03.260Z,8.17
2019-03-12T20:36:58.868Z,7.97
2019-03-12T20:40:16.610Z,7.00
2019-03-12T20:43:48.430Z,7.97
2019-03-12T20:47:06.812Z,8.37
2019-03-12T20:50:26.037Z,6.77
2019-03-12T20:54:08.125Z,7.30
2019-03-12T20:57:27.475Z,8.50
2019-03-12T21:00:57.550Z,7.73
2019-03-12T21:04:47.668Z,7.97
2019-03-12T21:08:19.991Z,6.10
2019-03-12T21:12:00.701Z,26.23
2019-03-12T21:15:27.787Z,8.17
2019-03-12T21:19:00.655Z,6.57
2019-03-12T21:22:30.759Z,5.83
2019-03-12T21:25:36.264Z,6.10
2019-03-12T21:28:36.599Z,7.43
2019-03-12T21:31:06.625Z,41.03
2019-03-12T21:33:36.810Z,14.57
2019-03-12T21:36:08.195Z,6.83
2019-03-12T21:38:38.382Z,7.77
2019-03-12T21:41:08.684Z,9.17
2019-03-12T21:43:39.042Z,5.10
2019-03-12T21:46:09.115Z,7.57
2019-03-12T21:48:39.598Z,7.70
2019-03-12T21:51:09.938Z,6.97
2019-03-12T21:53:40.317Z,6.90
2019-03-12T21:56:10.675Z,9.70
2019-03-12T21:58:42.081Z,6.13
2019-03-12T22:01:12.075Z,8.00
2019-03-12T22:03:42.871Z,9.10
2019-03-12T22:06:12.825Z,5.63
2019-03-12T22:08:42.695Z,7.90
2019-03-12T22:11:12.725Z,8.37
2019-03-12T22:13:46.088Z,7.83
2019-03-12T22:16:16.142Z,6.87
2019-03-12T22:18:46.054Z,8.77
2019-03-12T22:21:17.599Z,11.37
2019-03-12T22:23:49.361Z,6.93
2019-03-12T22:26:19.319Z,8.73
2019-03-12T22:28:49.549Z,6.33
2019-03-12T22:31:19.445Z,6.47
2019-03-12T22:33:49.344Z,5.87
2019-03-12T22:36:19.369Z,8.03
2019-03-12T22:38:49.543Z,23.57
2019-03-12T22:41:19.472Z,8.23
2019-03-12T22:43:49.596Z,4.10
2019-03-12T22:46:19.661Z,3.67
2019-03-12T22:48:50.201Z,17.50
2019-03-12T22:51:20.200Z,8.47
2019-03-12T22:53:50.103Z,8.73
2019-03-12T22:56:20.013Z,5.20
2019-03-12T22:58:49.958Z,7.73
2019-03-12T23:01:20.295Z,5.57
2019-03-12T23:03:50.550Z,7.63
2019-03-12T23:06:20.427Z,8.93
2019-03-12T23:08:50.403Z,10.80
2019-03-12T23:11:20.354Z,6.90
2019-03-12T23:13:50.280Z,8.17
2019-03-12T23:16:20.198Z,5.77
2019-03-12T23:18:50.270Z,5.30
2019-03-12T23:21:20.325Z,5.30
2019-03-12T23:23:50.241Z,3.60
2019-03-12T23:26:20.463Z,4.77
2019-03-12T23:28:50.755Z,4.60
2019-03-12T23:31:21.213Z,3.13
2019-03-12T23:33:51.510Z,7.97
2019-03-12T23:36:21.962Z,3.40
2019-03-12T23:38:51.935Z,5.87
2019-03-12T23:41:22.041Z,3.53
2019-03-12T23:43:52.371Z,6.33
2019-03-12T23:46:22.381Z,5.27
2019-03-12T23:48:52.771Z,4.07
2019-03-12T23:51:22.839Z,4.60
2019-03-12T23:53:53.050Z,5.07
2019-03-12T23:56:23.280Z,6.00
2019-03-12T23:58:53.462Z,5.83
